createdAt,value
2022-12-08T00:02:45.595Z,96439.66
2022-12-08T00:06:59.410Z,96414.34
2022-12-08T00:10:59.601Z,96439.59
2022-12-08T00:14:59.782Z,96421.66
2022-12-08T00:19:02.470Z,96427.28
2022-12-08T00:23:04.291Z,96432.97
2022-12-08T00:27:05.101Z,96422.69
2022-12-08T00:31:12.591Z,96424.41
2022-12-08T00:35:15.383Z,96420.50
2022-12-08T00:39:17.855Z,96413.88
2022-12-08T00:43:18.204Z,96414.84
2022-12-08T00:47:23.435Z,96403.75
2022-12-08T00:51:27.387Z,96415.91
2022-12-08T00:55:27.684Z,96420.13
2022-12-08T00:59:27.817Z,96410.06
2022-12-08T01:03:27.971Z,96411.19
2022-12-08T01:07:31.331Z,96398.25
2022-12-08T01:11:31.431Z,96405.41
2022-12-08T01:15:31.587Z,96416.09
2022-12-08T01:19:31.747Z,96422.22
2022-12-08T01:23:34.600Z,96422.75
2022-12-08T01:27:34.792Z,96421.44
2022-12-08T01:31:35.059Z,96422.00
2022-12-08T01:35:36.868Z,96425.53
2022-12-08T01:39:41.262Z,96388.66
2022-12-08T01:44:02.150Z,96350.41
2022-12-08T01:48:08.739Z,96386.38
2022-12-08T01:52:19.484Z,96400.09
2022-12-08T01:56:30.667Z,96402.53
2022-12-08T02:00:30.751Z,96406.44
2022-12-08T02:04:30.967Z,96403.69
2022-12-08T02:08:32.299Z,96387.41
2022-12-08T02:12:35.170Z,96387.22
2022-12-08T02:16:50.148Z,96370.94
2022-12-08T02:21:00.887Z,96380.25
2022-12-08T02:25:14.035Z,96376.56
2022-12-08T02:30:05.137Z,96373.41
2022-12-08T02:34:28.024Z,96366.53
2022-12-08T02:38:46.998Z,96324.31
2022-12-08T02:42:54.151Z,96369.97
2022-12-08T02:47:06.197Z,96323.19
2022-12-08T02:51:09.707Z,96357.00
2022-12-08T02:55:27.611Z,96351.75
2022-12-08T02:59:52.963Z,96350.59
2022-12-08T03:04:07.423Z,96354.50
2022-12-08T03:08:20.090Z,96333.06
2022-12-08T03:12:28.843Z,96345.00
2022-12-08T03:16:32.106Z,96348.19
2022-12-08T03:20:35.701Z,96350.38
2022-12-08T03:24:42.227Z,96340.63
2022-12-08T03:28:42.844Z,96334.91
2022-12-08T03:32:51.348Z,96337.16
2022-12-08T03:36:51.496Z,96337.91
2022-12-08T03:41:06.496Z,96271.28
2022-12-08T03:45:07.722Z,96323.31
2022-12-08T03:49:07.835Z,96330.72
2022-12-08T03:53:08.052Z,96327.06
2022-12-08T03:57:10.760Z,96304.78
2022-12-08T04:01:11.317Z,96321.06
2022-12-08T04:05:12.287Z,96301.38
2022-12-08T04:09:12.456Z,96291.72
2022-12-08T04:13:15.191Z,96300.00
2022-12-08T04:17:15.280Z,96299.66
2022-12-08T04:21:15.544Z,96240.44
2022-12-08T04:25:15.632Z,96300.91
2022-12-08T04:29:18.700Z,96295.75
2022-12-08T04:33:19.044Z,96296.91
2022-12-08T04:37:19.143Z,96287.81
2022-12-08T04:41:19.268Z,96289.31
2022-12-08T04:45:22.176Z,96256.66
2022-12-08T04:49:22.300Z,96282.09
2022-12-08T04:53:22.563Z,96279.00
2022-12-08T04:57:22.731Z,96265.00
2022-12-08T05:01:25.461Z,96271.69
2022-12-08T05:05:25.701Z,96268.09
2022-12-08T05:09:25.928Z,96274.50
2022-12-08T05:13:26.249Z,96281.66
2022-12-08T05:17:28.966Z,96281.88
2022-12-08T05:21:29.123Z,96273.06
2022-12-08T05:25:29.407Z,96262.59
2022-12-08T05:29:30.010Z,96246.78
2022-12-08T05:33:32.680Z,96274.53
2022-12-08T05:37:32.811Z,96264.88
2022-12-08T05:41:32.927Z,96266.50
2022-12-08T05:45:33.141Z,96265.81
2022-12-08T05:49:36.161Z,96269.25
2022-12-08T05:53:36.303Z,96256.28
2022-12-08T05:57:36.497Z,96259.72
2022-12-08T06:01:37.096Z,96272.81
2022-12-08T06:05:39.922Z,96244.59
2022-12-08T06:09:40.016Z,96264.19
2022-12-08T06:13:40.112Z,96252.69
2022-12-08T06:17:40.188Z,96260.75
2022-12-08T06:21:42.901Z,96262.38
2022-12-08T06:25:42.980Z,96266.72
2022-12-08T06:29:43.038Z,96231.28
2022-12-08T06:33:43.299Z,96254.09
2022-12-08T06:37:46.250Z,96257.91
2022-12-08T06:41:58.642Z,96250.34
2022-12-08T06:45:58.942Z,96252.97
2022-12-08T06:49:59.053Z,96264.88
2022-12-08T06:54:01.869Z,96263.06
2022-12-08T06:58:02.001Z,96269.78
2022-12-08T07:02:02.301Z,96271.09
2022-12-08T07:06:04.325Z,96273.34
2022-12-08T07:10:08.946Z,96280.59
2022-12-08T07:14:10.929Z,96259.84
2022-12-08T07:18:11.230Z,96283.56
2022-12-08T07:22:11.271Z,96279.44
2022-12-08T07:26:15.753Z,96283.66
2022-12-08T07:30:17.565Z,96265.53
2022-12-08T07:34:17.874Z,96276.31
2022-12-08T07:38:17.977Z,96263.69
2022-12-08T07:42:20.721Z,96278.44
2022-12-08T07:46:24.341Z,96280.66
2022-12-08T07:50:24.601Z,96285.84
2022-12-08T07:54:24.743Z,96280.16
2022-12-08T07:58:27.936Z,96241.41
2022-12-08T08:02:28.116Z,96267.72
2022-12-08T08:06:28.357Z,96275.09
2022-12-08T08:10:28.561Z,96253.00
2022-12-08T08:14:31.241Z,96248.50
2022-12-08T08:18:31.294Z,96279.16
2022-12-08T08:22:31.663Z,96268.34
2022-12-08T08:26:31.757Z,96279.25
2022-12-08T08:30:34.416Z,96281.72
2022-12-08T08:34:34.574Z,96274.34
2022-12-08T08:38:34.903Z,96266.31
2022-12-08T08:42:35.063Z,96279.38
2022-12-08T08:46:37.932Z,96276.91
2022-12-08T08:50:38.150Z,96227.28
2022-12-08T08:54:38.396Z,96270.28
2022-12-08T08:58:38.564Z,96280.22
2022-12-08T09:02:41.815Z,96251.03
2022-12-08T09:06:43.249Z,96292.03
2022-12-08T09:10:43.616Z,96287.75
2022-12-08T09:14:43.833Z,96282.47
2022-12-08T09:18:46.596Z,96268.09
2022-12-08T09:22:46.839Z,96261.03
2022-12-08T09:26:49.853Z,96217.06
2022-12-08T09:30:50.690Z,96274.94
2022-12-08T09:34:54.306Z,96264.66
2022-12-08T09:38:55.912Z,96266.28
2022-12-08T09:43:07.758Z,96251.22
2022-12-08T09:47:21.952Z,96221.75
2022-12-08T09:51:27.411Z,96259.59
2022-12-08T09:55:43.079Z,96250.66
2022-12-08T09:59:47.705Z,96250.94
2022-12-08T10:03:48.203Z,96246.50
2022-12-08T10:08:06.514Z,96240.59
2022-12-08T10:12:19.513Z,96236.47
2022-12-08T10:16:31.122Z,96225.31
2022-12-08T10:20:41.431Z,96231.72
2022-12-08T10:24:56.566Z,96223.56
2022-12-08T10:29:01.345Z,96221.72
2022-12-08T10:33:01.610Z,96216.88
2022-12-08T10:37:03.400Z,96121.13
2022-12-08T10:41:10.176Z,96175.19
2022-12-08T10:45:27.687Z,96187.69
2022-12-08T10:49:35.957Z,96192.91
2022-12-08T10:53:48.968Z,96187.69
2022-12-08T10:57:51.766Z,96171.44
2022-12-08T11:01:54.802Z,96142.41
2022-12-08T11:06:07.285Z,96172.91
2022-12-08T11:10:22.322Z,96165.94
2022-12-08T11:14:29.122Z,96163.38
2022-12-08T11:18:41.974Z,96163.72
2022-12-08T11:22:44.744Z,96158.50
2022-12-08T11:26:53.653Z,96143.69
2022-12-08T11:31:05.533Z,96100.81
2022-12-08T11:35:10.023Z,96136.59
2022-12-08T11:39:15.900Z,96117.69
2022-12-08T11:43:23.883Z,96113.09
2022-12-08T11:47:37.056Z,96136.53
2022-12-08T11:51:42.876Z,96125.22
2022-12-08T11:55:50.358Z,96125.00
2022-12-08T11:59:53.768Z,96126.09
2022-12-08T12:04:10.133Z,96073.47
2022-12-08T12:08:31.756Z,96113.13
2022-12-08T12:12:54.837Z,96118.06
2022-12-08T12:17:08.074Z,96090.41
2022-12-08T12:21:22.719Z,96102.78
2022-12-08T12:25:26.770Z,96110.28
2022-12-08T12:29:31.078Z,96103.84
2022-12-08T12:33:34.192Z,96089.53
2022-12-08T12:37:45.634Z,96104.22
2022-12-08T12:41:51.161Z,96103.75
2022-12-08T12:45:51.727Z,96085.78
2022-12-08T12:50:10.078Z,96095.25
2022-12-08T12:54:29.781Z,96095.34
2022-12-08T12:58:42.797Z,96091.88
2022-12-08T13:02:51.465Z,96087.88
2022-12-08T13:06:53.553Z,96084.53
2022-12-08T13:11:05.402Z,96090.22
2022-12-08T13:15:09.964Z,96069.91
2022-12-08T13:19:18.847Z,96081.84
2022-12-08T13:23:47.304Z,96059.97
2022-12-08T13:27:57.931Z,96056.59
2022-12-08T13:32:00.038Z,96084.13
2022-12-08T13:36:25.382Z,96082.84
2022-12-08T13:40:31.916Z,96077.81
2022-12-08T13:54:42.620Z,96057.19
2022-12-08T13:57:53.659Z,96078.09
2022-12-08T14:01:57.883Z,96090.47
2022-12-08T14:06:13.852Z,96080.91
2022-12-08T14:10:23.295Z,96082.13
2022-12-08T14:15:00.705Z,96089.03
2022-12-08T14:18:54.095Z,96080.22
2022-12-08T14:22:55.781Z,96080.72
2022-12-08T14:26:59.897Z,96069.41
2022-12-08T14:31:00.257Z,96068.19
2022-12-08T14:35:18.170Z,96077.31
2022-12-08T14:39:20.009Z,96063.53
2022-12-08T14:43:23.594Z,96060.06
2022-12-08T14:47:23.771Z,96069.31
2022-12-08T14:51:33.659Z,96070.84
2022-12-08T14:55:40.228Z,96060.88
2022-12-08T14:59:43.923Z,96064.47
2022-12-08T15:03:50.416Z,96079.72
2022-12-08T15:07:58.732Z,96077.06
2022-12-08T15:12:04.450Z,96071.13
2022-12-08T15:16:06.457Z,96083.25
2022-12-08T15:20:09.595Z,96068.91
2022-12-08T15:24:15.446Z,96082.56
2022-12-08T15:28:17.186Z,96075.28
2022-12-08T15:32:22.117Z,96082.13
2022-12-08T15:36:22.488Z,96076.34
2022-12-08T15:40:27.098Z,96059.47
2022-12-08T15:44:27.391Z,96073.00
2022-12-08T15:48:30.587Z,96079.94
2022-12-08T15:52:30.668Z,96081.47
2022-12-08T15:56:34.406Z,96082.09
2022-12-08T16:00:56.817Z,96087.84
2022-12-08T16:05:40.195Z,96062.25
2022-12-08T16:09:26.269Z,96080.69
2022-12-08T16:13:56.793Z,96097.78
2022-12-08T16:17:59.242Z,96093.41
2022-12-08T16:30:45.665Z,96086.38
2022-12-08T16:34:46.194Z,96092.22
2022-12-08T16:38:46.296Z,96086.16
2022-12-08T16:42:48.545Z,96096.78
2022-12-08T16:46:51.298Z,96054.09
2022-12-08T16:50:51.687Z,96100.03
2022-12-08T16:54:51.923Z,96090.16
2022-12-08T16:58:52.143Z,96083.34
2022-12-08T17:02:55.957Z,96094.31
2022-12-08T17:06:56.101Z,96089.72
2022-12-08T17:11:07.374Z,96043.88
2022-12-08T17:15:11.298Z,96087.44
2022-12-08T17:19:16.642Z,96032.50
2022-12-08T17:23:16.808Z,96086.84
2022-12-08T17:27:16.951Z,96085.94
2022-12-08T17:31:21.377Z,96088.44
2022-12-08T17:35:26.408Z,96085.44
2022-12-08T17:39:27.029Z,96089.25
2022-12-08T17:43:27.181Z,96095.97
2022-12-08T17:47:27.389Z,96086.78
2022-12-08T17:51:30.074Z,96097.34
2022-12-08T17:55:30.126Z,96096.28
2022-12-08T17:59:31.847Z,96098.53
2022-12-08T18:03:32.137Z,96083.66
2022-12-08T18:07:34.841Z,96088.81
2022-12-08T18:11:36.128Z,96068.22
2022-12-08T18:15:39.284Z,96107.22
2022-12-08T18:19:39.694Z,96095.91
2022-12-08T18:23:46.056Z,96091.00
2022-12-08T18:27:47.118Z,96093.50
2022-12-08T18:31:47.412Z,96089.16
2022-12-08T18:35:49.184Z,96101.31
2022-12-08T18:39:52.083Z,96092.75
2022-12-08T18:43:52.449Z,96074.34
2022-12-08T18:47:54.863Z,96087.47
2022-12-08T18:51:55.073Z,96076.69
2022-12-08T18:55:57.881Z,96035.00
2022-12-08T18:59:58.016Z,96025.97
2022-12-08T19:04:26.761Z,96055.06
2022-12-08T19:08:18.583Z,96087.91
2022-12-08T19:12:21.306Z,96072.09
2022-12-08T19:16:21.693Z,96083.06
2022-12-08T19:20:22.273Z,95875.34
2022-12-08T19:24:23.041Z,96076.19
2022-12-08T19:28:25.775Z,96073.91
2022-12-08T19:32:25.952Z,96086.66
2022-12-08T19:36:27.661Z,96072.97
2022-12-08T19:40:48.791Z,96013.78
2022-12-08T19:44:57.121Z,96084.69
2022-12-08T19:48:58.549Z,96062.81
2022-12-08T19:52:59.434Z,96077.13
2022-12-08T19:57:00.040Z,96076.44
2022-12-08T20:01:03.096Z,96078.19
2022-12-08T20:05:03.319Z,96074.94
2022-12-08T20:09:03.532Z,96073.09
2022-12-08T20:13:17.779Z,96064.41
2022-12-08T20:17:20.598Z,96080.22
2022-12-08T20:21:20.885Z,96072.69
2022-12-08T20:25:21.209Z,96057.88
2022-12-08T20:29:21.511Z,96084.00
2022-12-08T20:33:24.325Z,96079.28
2022-12-08T20:37:24.565Z,96072.53
2022-12-08T20:41:26.033Z,96058.41
2022-12-08T20:45:26.134Z,96051.81
2022-12-08T20:49:34.422Z,96063.78
2022-12-08T20:53:35.027Z,96059.13
2022-12-08T20:57:35.522Z,96072.53
2022-12-08T21:01:35.861Z,96068.75
2022-12-08T21:05:39.116Z,96070.13
2022-12-08T21:09:40.173Z,96049.06
2022-12-08T21:13:43.427Z,96070.84
2022-12-08T21:17:53.941Z,95925.66
2022-12-08T21:26:44.784Z,95857.84
2022-12-08T21:30:50.778Z,96065.31
2022-12-08T21:35:00.257Z,96073.69
2022-12-08T21:39:11.657Z,96076.19
2022-12-08T21:43:12.129Z,96026.97
2022-12-08T21:47:12.630Z,96042.06
2022-12-08T21:51:12.931Z,96078.25
2022-12-08T21:55:19.039Z,96078.81
2022-12-08T21:59:19.888Z,96084.19
2022-12-08T22:03:20.207Z,96077.47
2022-12-08T22:07:20.677Z,96065.03
2022-12-08T22:11:23.351Z,96068.38
2022-12-08T22:15:23.434Z,96076.41
2022-12-08T22:19:24.754Z,96070.22
2022-12-08T22:23:25.831Z,96039.91
2022-12-08T22:27:28.742Z,96066.56
2022-12-08T22:31:29.849Z,96067.13
2022-12-08T22:35:30.322Z,96060.47
2022-12-08T22:39:30.755Z,96038.53
2022-12-08T22:43:34.031Z,96061.41
2022-12-08T22:47:34.451Z,96052.84
2022-12-08T22:51:35.139Z,96060.50
2022-12-08T22:55:35.851Z,96033.47
2022-12-08T22:59:40.985Z,96049.97
2022-12-08T23:03:41.221Z,96043.94
2022-12-08T23:07:42.016Z,96047.84
2022-12-08T23:11:44.355Z,96032.94
2022-12-08T23:15:47.288Z,96012.34
2022-12-08T23:19:47.465Z,96020.56
2022-12-08T23:23:50.092Z,96033.84
2022-12-08T23:27:50.806Z,96011.84
2022-12-08T23:31:53.774Z,96029.00
2022-12-08T23:36:00.039Z,96032.34
2022-12-08T23:40:00.430Z,96028.56
2022-12-08T23:44:00.693Z,96033.41
2022-12-08T23:48:03.607Z,96030.38
2022-12-08T23:52:03.976Z,95966.31
2022-12-08T23:56:07.245Z,96004.75
